<?xml version="1.0" encoding="UTF-8" standalone="no" ?>
<gpx xmlns="http://www.topografix.com/GPX/1/1" xmlns:xsi="http://www.w3.org/2001/XMLSchema-instance" xsi:schemaLocation="http://www.topografix.com/GPX/1/1 http://www.topografix.com/GPX/1/1/gpx.xsd" version="1.1" creator="VisuGPX - https://www.visugpx.com">
  <metadata>
    <name>13782429-Les 3 Croix col de la république</name>
  </metadata>
  <trk>
    <name><![CDATA[13782429-Les 3 Croix col de la république]]></name>
    <trkseg>
      <trkpt lat="45.32655" lon="4.48136">
        <ele>1143</ele>
        <time>2022-02-02T09:35:54Z</time>
      </trkpt>
      <trkpt lat="45.32634" lon="4.48134">
        <ele>1142</ele>
        <time>2022-02-02T09:36:22Z</time>
      </trkpt>
      <trkpt lat="45.32623" lon="4.48136">
        <ele>1142</ele>
        <time>2022-02-02T09:36:37Z</time>
      </trkpt>
      <trkpt lat="45.3261" lon="4.48131">
        <ele>1142</ele>
        <time>2022-02-02T09:36:55Z</time>
      </trkpt>
      <trkpt lat="45.326" lon="4.48144">
        <ele>1141</ele>
        <time>2022-02-02T09:37:13Z</time>
      </trkpt>
      <trkpt lat="45.32558" lon="4.48166">
        <ele>1141</ele>
        <time>2022-02-02T09:38:13Z</time>
      </trkpt>
      <trkpt lat="45.3248" lon="4.48142">
        <ele>1152</ele>
        <time>2022-02-02T09:39:59Z</time>
      </trkpt>
      <trkpt lat="45.3246" lon="4.48117">
        <ele>1157</ele>
        <time>2022-02-02T09:40:35Z</time>
      </trkpt>
      <trkpt lat="45.32433" lon="4.48">
        <ele>1170</ele>
        <time>2022-02-02T09:42:30Z</time>
      </trkpt>
      <trkpt lat="45.32409" lon="4.47929">
        <ele>1171</ele>
        <time>2022-02-02T09:43:44Z</time>
      </trkpt>
      <trkpt lat="45.32293" lon="4.47805">
        <ele>1183</ele>
        <time>2022-02-02T09:46:58Z</time>
      </trkpt>
      <trkpt lat="45.3222" lon="4.4776">
        <ele>1190</ele>
        <time>2022-02-02T09:48:44Z</time>
      </trkpt>
      <trkpt lat="45.32158" lon="4.477">
        <ele>1192</ele>
        <time>2022-02-02T09:50:24Z</time>
      </trkpt>
      <trkpt lat="45.32101" lon="4.47658">
        <ele>1192</ele>
        <time>2022-02-02T09:51:50Z</time>
      </trkpt>
      <trkpt lat="45.32083" lon="4.47626">
        <ele>1191</ele>
        <time>2022-02-02T09:52:28Z</time>
      </trkpt>
      <trkpt lat="45.32072" lon="4.47579">
        <ele>1189</ele>
        <time>2022-02-02T09:53:15Z</time>
      </trkpt>
      <trkpt lat="45.32047" lon="4.47505">
        <ele>1187</ele>
        <time>2022-02-02T09:54:32Z</time>
      </trkpt>
      <trkpt lat="45.32031" lon="4.47475">
        <ele>1186</ele>
        <time>2022-02-02T09:55:07Z</time>
      </trkpt>
      <trkpt lat="45.31998" lon="4.47445">
        <ele>1184</ele>
        <time>2022-02-02T09:55:59Z</time>
      </trkpt>
      <trkpt lat="45.3198" lon="4.47412">
        <ele>1181</ele>
        <time>2022-02-02T09:56:38Z</time>
      </trkpt>
      <trkpt lat="45.31971" lon="4.47372">
        <ele>1181</ele>
        <time>2022-02-02T09:57:18Z</time>
      </trkpt>
      <trkpt lat="45.31954" lon="4.47266">
        <ele>1181</ele>
        <time>2022-02-02T09:59:00Z</time>
      </trkpt>
      <trkpt lat="45.31935" lon="4.47226">
        <ele>1182</ele>
        <time>2022-02-02T09:59:45Z</time>
      </trkpt>
      <trkpt lat="45.31905" lon="4.47197">
        <ele>1185</ele>
        <time>2022-02-02T10:00:34Z</time>
      </trkpt>
      <trkpt lat="45.31865" lon="4.47138">
        <ele>1186</ele>
        <time>2022-02-02T10:01:50Z</time>
      </trkpt>
      <trkpt lat="45.31773" lon="4.47027">
        <ele>1183</ele>
        <time>2022-02-02T10:04:31Z</time>
      </trkpt>
      <trkpt lat="45.31755" lon="4.46987">
        <ele>1180</ele>
        <time>2022-02-02T10:05:16Z</time>
      </trkpt>
      <trkpt lat="45.31745" lon="4.46948">
        <ele>1177</ele>
        <time>2022-02-02T10:05:55Z</time>
      </trkpt>
      <trkpt lat="45.31739" lon="4.46898">
        <ele>1172</ele>
        <time>2022-02-02T10:06:43Z</time>
      </trkpt>
      <trkpt lat="45.31735" lon="4.46861">
        <ele>1169</ele>
        <time>2022-02-02T10:07:18Z</time>
      </trkpt>
      <trkpt lat="45.31721" lon="4.46837">
        <ele>1167</ele>
        <time>2022-02-02T10:07:47Z</time>
      </trkpt>
      <trkpt lat="45.31693" lon="4.46799">
        <ele>1164</ele>
        <time>2022-02-02T10:08:39Z</time>
      </trkpt>
      <trkpt lat="45.3168" lon="4.46764">
        <ele>1161</ele>
        <time>2022-02-02T10:09:16Z</time>
      </trkpt>
      <trkpt lat="45.31674" lon="4.46724">
        <ele>1157</ele>
        <time>2022-02-02T10:09:54Z</time>
      </trkpt>
      <trkpt lat="45.31649" lon="4.46634">
        <ele>1148</ele>
        <time>2022-02-02T10:11:25Z</time>
      </trkpt>
      <trkpt lat="45.31639" lon="4.4658">
        <ele>1148</ele>
        <time>2022-02-02T10:12:17Z</time>
      </trkpt>
      <trkpt lat="45.31632" lon="4.46561">
        <ele>1149</ele>
        <time>2022-02-02T10:12:37Z</time>
      </trkpt>
      <trkpt lat="45.31625" lon="4.46549">
        <ele>1150</ele>
        <time>2022-02-02T10:12:52Z</time>
      </trkpt>
      <trkpt lat="45.31616" lon="4.46539">
        <ele>1150</ele>
        <time>2022-02-02T10:13:07Z</time>
      </trkpt>
      <trkpt lat="45.31629" lon="4.46533">
        <ele>1150</ele>
        <time>2022-02-02T10:13:26Z</time>
      </trkpt>
      <trkpt lat="45.31616" lon="4.46539">
        <ele>1150</ele>
        <time>2022-02-02T10:13:44Z</time>
      </trkpt>
      <trkpt lat="45.31561" lon="4.46515">
        <ele>1151</ele>
        <time>2022-02-02T10:15:01Z</time>
      </trkpt>
      <trkpt lat="45.31552" lon="4.46508">
        <ele>1152</ele>
        <time>2022-02-02T10:15:14Z</time>
      </trkpt>
      <trkpt lat="45.31545" lon="4.46499">
        <ele>1151</ele>
        <time>2022-02-02T10:15:27Z</time>
      </trkpt>
      <trkpt lat="45.31538" lon="4.46486">
        <ele>1152</ele>
        <time>2022-02-02T10:15:42Z</time>
      </trkpt>
      <trkpt lat="45.31532" lon="4.46464">
        <ele>1152</ele>
        <time>2022-02-02T10:16:04Z</time>
      </trkpt>
      <trkpt lat="45.31525" lon="4.46451">
        <ele>1152</ele>
        <time>2022-02-02T10:16:20Z</time>
      </trkpt>
      <trkpt lat="45.31494" lon="4.46419">
        <ele>1150</ele>
        <time>2022-02-02T10:17:11Z</time>
      </trkpt>
      <trkpt lat="45.31481" lon="4.46387">
        <ele>1150</ele>
        <time>2022-02-02T10:17:46Z</time>
      </trkpt>
      <trkpt lat="45.31472" lon="4.46345">
        <ele>1152</ele>
        <time>2022-02-02T10:18:27Z</time>
      </trkpt>
      <trkpt lat="45.31457" lon="4.46305">
        <ele>1153</ele>
        <time>2022-02-02T10:19:09Z</time>
      </trkpt>
      <trkpt lat="45.31452" lon="4.46305">
        <ele>1152</ele>
        <time>2022-02-02T10:19:16Z</time>
      </trkpt>
      <trkpt lat="45.31442" lon="4.4625">
        <ele>1155</ele>
        <time>2022-02-02T10:20:09Z</time>
      </trkpt>
      <trkpt lat="45.31411" lon="4.46252">
        <ele>1151</ele>
        <time>2022-02-02T10:20:51Z</time>
      </trkpt>
      <trkpt lat="45.31411" lon="4.46236">
        <ele>1152</ele>
        <time>2022-02-02T10:21:06Z</time>
      </trkpt>
      <trkpt lat="45.31412" lon="4.46214">
        <ele>1153</ele>
        <time>2022-02-02T10:21:26Z</time>
      </trkpt>
      <trkpt lat="45.3141" lon="4.46149">
        <ele>1154</ele>
        <time>2022-02-02T10:22:27Z</time>
      </trkpt>
      <trkpt lat="45.31404" lon="4.46096">
        <ele>1153</ele>
        <time>2022-02-02T10:23:18Z</time>
      </trkpt>
      <trkpt lat="45.31403" lon="4.46046">
        <ele>1151</ele>
        <time>2022-02-02T10:24:05Z</time>
      </trkpt>
      <trkpt lat="45.31425" lon="4.45935">
        <ele>1152</ele>
        <time>2022-02-02T10:25:53Z</time>
      </trkpt>
      <trkpt lat="45.31425" lon="4.45895">
        <ele>1152</ele>
        <time>2022-02-02T10:26:31Z</time>
      </trkpt>
      <trkpt lat="45.31419" lon="4.45757">
        <ele>1151</ele>
        <time>2022-02-02T10:28:40Z</time>
      </trkpt>
      <trkpt lat="45.31424" lon="4.4574">
        <ele>1151</ele>
        <time>2022-02-02T10:28:58Z</time>
      </trkpt>
      <trkpt lat="45.31424" lon="4.45713">
        <ele>1153</ele>
        <time>2022-02-02T10:29:23Z</time>
      </trkpt>
      <trkpt lat="45.31423" lon="4.45663">
        <ele>1156</ele>
        <time>2022-02-02T10:30:10Z</time>
      </trkpt>
      <trkpt lat="45.31463" lon="4.45561">
        <ele>1159</ele>
        <time>2022-02-02T10:31:59Z</time>
      </trkpt>
      <trkpt lat="45.31482" lon="4.45476">
        <ele>1162</ele>
        <time>2022-02-02T10:33:23Z</time>
      </trkpt>
      <trkpt lat="45.31519" lon="4.45424">
        <ele>1158</ele>
        <time>2022-02-02T10:34:33Z</time>
      </trkpt>
      <trkpt lat="45.3153" lon="4.45417">
        <ele>1157</ele>
        <time>2022-02-02T10:34:49Z</time>
      </trkpt>
      <trkpt lat="45.31534" lon="4.45411">
        <ele>1156</ele>
        <time>2022-02-02T10:34:56Z</time>
      </trkpt>
      <trkpt lat="45.3154" lon="4.45381">
        <ele>1157</ele>
        <time>2022-02-02T10:35:26Z</time>
      </trkpt>
      <trkpt lat="45.3155" lon="4.45363">
        <ele>1156</ele>
        <time>2022-02-02T10:35:47Z</time>
      </trkpt>
      <trkpt lat="45.31575" lon="4.45339">
        <ele>1155</ele>
        <time>2022-02-02T10:36:27Z</time>
      </trkpt>
      <trkpt lat="45.31587" lon="4.45321">
        <ele>1154</ele>
        <time>2022-02-02T10:36:51Z</time>
      </trkpt>
      <trkpt lat="45.31603" lon="4.45266">
        <ele>1155</ele>
        <time>2022-02-02T10:37:47Z</time>
      </trkpt>
      <trkpt lat="45.31635" lon="4.45207">
        <ele>1154</ele>
        <time>2022-02-02T10:38:57Z</time>
      </trkpt>
      <trkpt lat="45.31648" lon="4.45174">
        <ele>1155</ele>
        <time>2022-02-02T10:39:32Z</time>
      </trkpt>
      <trkpt lat="45.31668" lon="4.4514">
        <ele>1155</ele>
        <time>2022-02-02T10:40:14Z</time>
      </trkpt>
      <trkpt lat="45.31679" lon="4.45079">
        <ele>1158</ele>
        <time>2022-02-02T10:41:13Z</time>
      </trkpt>
      <trkpt lat="45.31678" lon="4.45066">
        <ele>1158</ele>
        <time>2022-02-02T10:41:25Z</time>
      </trkpt>
      <trkpt lat="45.31679" lon="4.45079">
        <ele>1158</ele>
        <time>2022-02-02T10:41:37Z</time>
      </trkpt>
      <trkpt lat="45.31668" lon="4.4514">
        <ele>1155</ele>
        <time>2022-02-02T10:42:36Z</time>
      </trkpt>
      <trkpt lat="45.31687" lon="4.45091">
        <ele>1156</ele>
        <time>2022-02-02T10:43:29Z</time>
      </trkpt>
      <trkpt lat="45.31708" lon="4.4506">
        <ele>1155</ele>
        <time>2022-02-02T10:44:09Z</time>
      </trkpt>
      <trkpt lat="45.31738" lon="4.45026">
        <ele>1152</ele>
        <time>2022-02-02T10:45:00Z</time>
      </trkpt>
      <trkpt lat="45.31785" lon="4.44964">
        <ele>1150</ele>
        <time>2022-02-02T10:46:26Z</time>
      </trkpt>
      <trkpt lat="45.31838" lon="4.44898">
        <ele>1145</ele>
        <time>2022-02-02T10:48:00Z</time>
      </trkpt>
      <trkpt lat="45.31888" lon="4.44852">
        <ele>1139</ele>
        <time>2022-02-02T10:49:19Z</time>
      </trkpt>
      <trkpt lat="45.31911" lon="4.44827">
        <ele>1136</ele>
        <time>2022-02-02T10:49:58Z</time>
      </trkpt>
      <trkpt lat="45.31915" lon="4.44801">
        <ele>1133</ele>
        <time>2022-02-02T10:50:23Z</time>
      </trkpt>
      <trkpt lat="45.31911" lon="4.44782">
        <ele>1132</ele>
        <time>2022-02-02T10:50:42Z</time>
      </trkpt>
      <trkpt lat="45.31894" lon="4.44781">
        <ele>1133</ele>
        <time>2022-02-02T10:51:04Z</time>
      </trkpt>
      <trkpt lat="45.31844" lon="4.44762">
        <ele>1137</ele>
        <time>2022-02-02T10:52:13Z</time>
      </trkpt>
      <trkpt lat="45.31821" lon="4.44738">
        <ele>1139</ele>
        <time>2022-02-02T10:52:52Z</time>
      </trkpt>
      <trkpt lat="45.31789" lon="4.4473">
        <ele>1146</ele>
        <time>2022-02-02T10:53:35Z</time>
      </trkpt>
      <trkpt lat="45.31764" lon="4.4473">
        <ele>1152</ele>
        <time>2022-02-02T10:54:08Z</time>
      </trkpt>
      <trkpt lat="45.31709" lon="4.44718">
        <ele>1164</ele>
        <time>2022-02-02T10:55:22Z</time>
      </trkpt>
      <trkpt lat="45.3169" lon="4.44703">
        <ele>1168</ele>
        <time>2022-02-02T10:55:51Z</time>
      </trkpt>
      <trkpt lat="45.31661" lon="4.4462">
        <ele>1168</ele>
        <time>2022-02-02T10:57:18Z</time>
      </trkpt>
      <trkpt lat="45.31626" lon="4.44548">
        <ele>1167</ele>
        <time>2022-02-02T10:58:41Z</time>
      </trkpt>
      <trkpt lat="45.31582" lon="4.44535">
        <ele>1174</ele>
        <time>2022-02-02T10:59:41Z</time>
      </trkpt>
      <trkpt lat="45.31567" lon="4.44512">
        <ele>1174</ele>
        <time>2022-02-02T11:00:10Z</time>
      </trkpt>
      <trkpt lat="45.31545" lon="4.44493">
        <ele>1175</ele>
        <time>2022-02-02T11:00:44Z</time>
      </trkpt>
      <trkpt lat="45.3152" lon="4.44487">
        <ele>1178</ele>
        <time>2022-02-02T11:01:18Z</time>
      </trkpt>
      <trkpt lat="45.31461" lon="4.44484">
        <ele>1183</ele>
        <time>2022-02-02T11:02:37Z</time>
      </trkpt>
      <trkpt lat="45.314" lon="4.44485">
        <ele>1186</ele>
        <time>2022-02-02T11:03:58Z</time>
      </trkpt>
      <trkpt lat="45.31357" lon="4.44495">
        <ele>1189</ele>
        <time>2022-02-02T11:04:57Z</time>
      </trkpt>
      <trkpt lat="45.31314" lon="4.44508">
        <ele>1192</ele>
        <time>2022-02-02T11:05:55Z</time>
      </trkpt>
      <trkpt lat="45.31296" lon="4.44525">
        <ele>1194</ele>
        <time>2022-02-02T11:06:24Z</time>
      </trkpt>
      <trkpt lat="45.31259" lon="4.44501">
        <ele>1195</ele>
        <time>2022-02-02T11:07:18Z</time>
      </trkpt>
      <trkpt lat="45.31187" lon="4.44419">
        <ele>1202</ele>
        <time>2022-02-02T11:09:21Z</time>
      </trkpt>
      <trkpt lat="45.31153" lon="4.44361">
        <ele>1207</ele>
        <time>2022-02-02T11:10:32Z</time>
      </trkpt>
      <trkpt lat="45.31153" lon="4.44331">
        <ele>1207</ele>
        <time>2022-02-02T11:11:00Z</time>
      </trkpt>
      <trkpt lat="45.31105" lon="4.44239">
        <ele>1206</ele>
        <time>2022-02-02T11:12:48Z</time>
      </trkpt>
      <trkpt lat="45.31027" lon="4.44174">
        <ele>1208</ele>
        <time>2022-02-02T11:14:49Z</time>
      </trkpt>
      <trkpt lat="45.30855" lon="4.44048">
        <ele>1215</ele>
        <time>2022-02-02T11:19:07Z</time>
      </trkpt>
      <trkpt lat="45.30833" lon="4.44049">
        <ele>1218</ele>
        <time>2022-02-02T11:19:36Z</time>
      </trkpt>
      <trkpt lat="45.30812" lon="4.44042">
        <ele>1218</ele>
        <time>2022-02-02T11:20:05Z</time>
      </trkpt>
      <trkpt lat="45.30805" lon="4.44035">
        <ele>1217</ele>
        <time>2022-02-02T11:20:16Z</time>
      </trkpt>
      <trkpt lat="45.30808" lon="4.44198">
        <ele>1226</ele>
        <time>2022-02-02T11:22:49Z</time>
      </trkpt>
      <trkpt lat="45.308" lon="4.44242">
        <ele>1229</ele>
        <time>2022-02-02T11:23:32Z</time>
      </trkpt>
      <trkpt lat="45.30794" lon="4.44266">
        <ele>1230</ele>
        <time>2022-02-02T11:23:56Z</time>
      </trkpt>
      <trkpt lat="45.30793" lon="4.44288">
        <ele>1232</ele>
        <time>2022-02-02T11:24:17Z</time>
      </trkpt>
      <trkpt lat="45.30786" lon="4.44329">
        <ele>1234</ele>
        <time>2022-02-02T11:24:56Z</time>
      </trkpt>
      <trkpt lat="45.30779" lon="4.44351">
        <ele>1235</ele>
        <time>2022-02-02T11:25:19Z</time>
      </trkpt>
      <trkpt lat="45.3076" lon="4.4443">
        <ele>1238</ele>
        <time>2022-02-02T11:26:37Z</time>
      </trkpt>
      <trkpt lat="45.30753" lon="4.44443">
        <ele>1238</ele>
        <time>2022-02-02T11:26:53Z</time>
      </trkpt>
      <trkpt lat="45.30743" lon="4.44453">
        <ele>1238</ele>
        <time>2022-02-02T11:27:09Z</time>
      </trkpt>
      <trkpt lat="45.3071" lon="4.44479">
        <ele>1238</ele>
        <time>2022-02-02T11:27:59Z</time>
      </trkpt>
      <trkpt lat="45.30696" lon="4.44481">
        <ele>1238</ele>
        <time>2022-02-02T11:28:18Z</time>
      </trkpt>
      <trkpt lat="45.3067" lon="4.4448">
        <ele>1237</ele>
        <time>2022-02-02T11:28:53Z</time>
      </trkpt>
      <trkpt lat="45.30636" lon="4.44475">
        <ele>1237</ele>
        <time>2022-02-02T11:29:38Z</time>
      </trkpt>
      <trkpt lat="45.30591" lon="4.44442">
        <ele>1235</ele>
        <time>2022-02-02T11:30:46Z</time>
      </trkpt>
      <trkpt lat="45.30565" lon="4.44421">
        <ele>1232</ele>
        <time>2022-02-02T11:31:26Z</time>
      </trkpt>
      <trkpt lat="45.30547" lon="4.44413">
        <ele>1230</ele>
        <time>2022-02-02T11:31:51Z</time>
      </trkpt>
      <trkpt lat="45.30528" lon="4.44411">
        <ele>1230</ele>
        <time>2022-02-02T11:32:16Z</time>
      </trkpt>
      <trkpt lat="45.30501" lon="4.44416">
        <ele>1229</ele>
        <time>2022-02-02T11:32:53Z</time>
      </trkpt>
      <trkpt lat="45.3047" lon="4.44417">
        <ele>1228</ele>
        <time>2022-02-02T11:33:34Z</time>
      </trkpt>
      <trkpt lat="45.30452" lon="4.44425">
        <ele>1227</ele>
        <time>2022-02-02T11:33:59Z</time>
      </trkpt>
      <trkpt lat="45.30436" lon="4.44415">
        <ele>1226</ele>
        <time>2022-02-02T11:34:23Z</time>
      </trkpt>
      <trkpt lat="45.3041" lon="4.4439">
        <ele>1222</ele>
        <time>2022-02-02T11:35:04Z</time>
      </trkpt>
      <trkpt lat="45.3037" lon="4.44372">
        <ele>1219</ele>
        <time>2022-02-02T11:36:00Z</time>
      </trkpt>
      <trkpt lat="45.30311" lon="4.44326">
        <ele>1214</ele>
        <time>2022-02-02T11:37:30Z</time>
      </trkpt>
      <trkpt lat="45.30245" lon="4.44257">
        <ele>1210</ele>
        <time>2022-02-02T11:39:20Z</time>
      </trkpt>
      <trkpt lat="45.30221" lon="4.44202">
        <ele>1207</ele>
        <time>2022-02-02T11:40:20Z</time>
      </trkpt>
      <trkpt lat="45.30183" lon="4.44135">
        <ele>1202</ele>
        <time>2022-02-02T11:41:41Z</time>
      </trkpt>
      <trkpt lat="45.30172" lon="4.4412">
        <ele>1201</ele>
        <time>2022-02-02T11:42:01Z</time>
      </trkpt>
      <trkpt lat="45.30159" lon="4.44109">
        <ele>1200</ele>
        <time>2022-02-02T11:42:22Z</time>
      </trkpt>
      <trkpt lat="45.30147" lon="4.44099">
        <ele>1199</ele>
        <time>2022-02-02T11:42:40Z</time>
      </trkpt>
      <trkpt lat="45.30129" lon="4.44077">
        <ele>1196</ele>
        <time>2022-02-02T11:43:12Z</time>
      </trkpt>
      <trkpt lat="45.3012" lon="4.44073">
        <ele>1195</ele>
        <time>2022-02-02T11:43:24Z</time>
      </trkpt>
      <trkpt lat="45.30111" lon="4.44076">
        <ele>1195</ele>
        <time>2022-02-02T11:43:37Z</time>
      </trkpt>
      <trkpt lat="45.30085" lon="4.44092">
        <ele>1195</ele>
        <time>2022-02-02T11:44:15Z</time>
      </trkpt>
      <trkpt lat="45.30048" lon="4.44131">
        <ele>1193</ele>
        <time>2022-02-02T11:45:16Z</time>
      </trkpt>
      <trkpt lat="45.30041" lon="4.44137">
        <ele>1193</ele>
        <time>2022-02-02T11:45:27Z</time>
      </trkpt>
      <trkpt lat="45.30035" lon="4.44139">
        <ele>1192</ele>
        <time>2022-02-02T11:45:35Z</time>
      </trkpt>
      <trkpt lat="45.30029" lon="4.44137">
        <ele>1191</ele>
        <time>2022-02-02T11:45:43Z</time>
      </trkpt>
      <trkpt lat="45.30001" lon="4.44097">
        <ele>1183</ele>
        <time>2022-02-02T11:46:36Z</time>
      </trkpt>
      <trkpt lat="45.29993" lon="4.44091">
        <ele>1181</ele>
        <time>2022-02-02T11:46:48Z</time>
      </trkpt>
      <trkpt lat="45.29986" lon="4.44089">
        <ele>1180</ele>
        <time>2022-02-02T11:46:58Z</time>
      </trkpt>
      <trkpt lat="45.29976" lon="4.44093">
        <ele>1180</ele>
        <time>2022-02-02T11:47:12Z</time>
      </trkpt>
      <trkpt lat="45.29953" lon="4.44109">
        <ele>1179</ele>
        <time>2022-02-02T11:47:46Z</time>
      </trkpt>
      <trkpt lat="45.29944" lon="4.4411">
        <ele>1178</ele>
        <time>2022-02-02T11:47:58Z</time>
      </trkpt>
      <trkpt lat="45.29927" lon="4.44104">
        <ele>1175</ele>
        <time>2022-02-02T11:48:21Z</time>
      </trkpt>
      <trkpt lat="45.29916" lon="4.44102">
        <ele>1174</ele>
        <time>2022-02-02T11:48:36Z</time>
      </trkpt>
      <trkpt lat="45.29909" lon="4.44106">
        <ele>1173</ele>
        <time>2022-02-02T11:48:46Z</time>
      </trkpt>
      <trkpt lat="45.299" lon="4.4413">
        <ele>1173</ele>
        <time>2022-02-02T11:49:12Z</time>
      </trkpt>
      <trkpt lat="45.29856" lon="4.44152">
        <ele>1165</ele>
        <time>2022-02-02T11:50:14Z</time>
      </trkpt>
      <trkpt lat="45.29843" lon="4.44164">
        <ele>1162</ele>
        <time>2022-02-02T11:50:35Z</time>
      </trkpt>
      <trkpt lat="45.29842" lon="4.44173">
        <ele>1161</ele>
        <time>2022-02-02T11:50:43Z</time>
      </trkpt>
      <trkpt lat="45.29839" lon="4.44183">
        <ele>1160</ele>
        <time>2022-02-02T11:50:54Z</time>
      </trkpt>
      <trkpt lat="45.29796" lon="4.44126">
        <ele>1152</ele>
        <time>2022-02-02T11:52:12Z</time>
      </trkpt>
      <trkpt lat="45.29777" lon="4.44037">
        <ele>1147</ele>
        <time>2022-02-02T11:53:39Z</time>
      </trkpt>
      <trkpt lat="45.2979" lon="4.43914">
        <ele>1145</ele>
        <time>2022-02-02T11:55:36Z</time>
      </trkpt>
      <trkpt lat="45.29798" lon="4.43895">
        <ele>1146</ele>
        <time>2022-02-02T11:55:57Z</time>
      </trkpt>
      <trkpt lat="45.29747" lon="4.43696">
        <ele>1130</ele>
        <time>2022-02-02T11:59:16Z</time>
      </trkpt>
      <trkpt lat="45.29628" lon="4.4369">
        <ele>1122</ele>
        <time>2022-02-02T12:01:55Z</time>
      </trkpt>
      <trkpt lat="45.29493" lon="4.43567">
        <ele>1126</ele>
        <time>2022-02-02T12:05:29Z</time>
      </trkpt>
      <trkpt lat="45.29448" lon="4.43503">
        <ele>1128</ele>
        <time>2022-02-02T12:06:53Z</time>
      </trkpt>
      <trkpt lat="45.294" lon="4.43419">
        <ele>1127</ele>
        <time>2022-02-02T12:08:35Z</time>
      </trkpt>
      <trkpt lat="45.29373" lon="4.43419">
        <ele>1129</ele>
        <time>2022-02-02T12:09:11Z</time>
      </trkpt>
      <trkpt lat="45.29324" lon="4.43379">
        <ele>1129</ele>
        <time>2022-02-02T12:10:27Z</time>
      </trkpt>
      <trkpt lat="45.29236" lon="4.43315">
        <ele>1125</ele>
        <time>2022-02-02T12:12:38Z</time>
      </trkpt>
      <trkpt lat="45.29173" lon="4.4329">
        <ele>1122</ele>
        <time>2022-02-02T12:14:06Z</time>
      </trkpt>
      <trkpt lat="45.29128" lon="4.43279">
        <ele>1122</ele>
        <time>2022-02-02T12:15:07Z</time>
      </trkpt>
      <trkpt lat="45.29109" lon="4.43261">
        <ele>1123</ele>
        <time>2022-02-02T12:15:37Z</time>
      </trkpt>
      <trkpt lat="45.29053" lon="4.43229">
        <ele>1127</ele>
        <time>2022-02-02T12:16:58Z</time>
      </trkpt>
      <trkpt lat="45.29018" lon="4.43226">
        <ele>1129</ele>
        <time>2022-02-02T12:17:44Z</time>
      </trkpt>
      <trkpt lat="45.28977" lon="4.43202">
        <ele>1133</ele>
        <time>2022-02-02T12:18:44Z</time>
      </trkpt>
      <trkpt lat="45.28945" lon="4.43178">
        <ele>1137</ele>
        <time>2022-02-02T12:19:32Z</time>
      </trkpt>
      <trkpt lat="45.28891" lon="4.43146">
        <ele>1139</ele>
        <time>2022-02-02T12:20:50Z</time>
      </trkpt>
      <trkpt lat="45.28905" lon="4.4318">
        <ele>1137</ele>
        <time>2022-02-02T12:21:27Z</time>
      </trkpt>
      <trkpt lat="45.28943" lon="4.43252">
        <ele>1127</ele>
        <time>2022-02-02T12:22:51Z</time>
      </trkpt>
      <trkpt lat="45.2894" lon="4.43247">
        <ele>1127</ele>
        <time>2022-02-02T12:22:58Z</time>
      </trkpt>
      <trkpt lat="45.28908" lon="4.43268">
        <ele>1126</ele>
        <time>2022-02-02T12:23:45Z</time>
      </trkpt>
      <trkpt lat="45.28871" lon="4.43272">
        <ele>1127</ele>
        <time>2022-02-02T12:24:34Z</time>
      </trkpt>
      <trkpt lat="45.28803" lon="4.43297">
        <ele>1125</ele>
        <time>2022-02-02T12:26:08Z</time>
      </trkpt>
      <trkpt lat="45.28751" lon="4.43305">
        <ele>1123</ele>
        <time>2022-02-02T12:27:18Z</time>
      </trkpt>
      <trkpt lat="45.28681" lon="4.43314">
        <ele>1118</ele>
        <time>2022-02-02T12:28:52Z</time>
      </trkpt>
      <trkpt lat="45.28653" lon="4.43358">
        <ele>1110</ele>
        <time>2022-02-02T12:29:47Z</time>
      </trkpt>
      <trkpt lat="45.2863" lon="4.43411">
        <ele>1100</ele>
        <time>2022-02-02T12:30:46Z</time>
      </trkpt>
      <trkpt lat="45.28628" lon="4.43481">
        <ele>1090</ele>
        <time>2022-02-02T12:31:51Z</time>
      </trkpt>
      <trkpt lat="45.28653" lon="4.43562">
        <ele>1079</ele>
        <time>2022-02-02T12:33:14Z</time>
      </trkpt>
      <trkpt lat="45.28689" lon="4.43643">
        <ele>1072</ele>
        <time>2022-02-02T12:34:44Z</time>
      </trkpt>
      <trkpt lat="45.28697" lon="4.43714">
        <ele>1066</ele>
        <time>2022-02-02T12:35:52Z</time>
      </trkpt>
      <trkpt lat="45.287" lon="4.4378">
        <ele>1060</ele>
        <time>2022-02-02T12:36:54Z</time>
      </trkpt>
      <trkpt lat="45.28727" lon="4.43834">
        <ele>1057</ele>
        <time>2022-02-02T12:37:56Z</time>
      </trkpt>
      <trkpt lat="45.28736" lon="4.43879">
        <ele>1053</ele>
        <time>2022-02-02T12:38:40Z</time>
      </trkpt>
      <trkpt lat="45.28739" lon="4.43886">
        <ele>1053</ele>
        <time>2022-02-02T12:38:48Z</time>
      </trkpt>
      <trkpt lat="45.2877" lon="4.43977">
        <ele>1041</ele>
        <time>2022-02-02T12:40:23Z</time>
      </trkpt>
      <trkpt lat="45.28771" lon="4.44031">
        <ele>1033</ele>
        <time>2022-02-02T12:41:14Z</time>
      </trkpt>
      <trkpt lat="45.28753" lon="4.4407">
        <ele>1026</ele>
        <time>2022-02-02T12:41:57Z</time>
      </trkpt>
      <trkpt lat="45.28723" lon="4.44107">
        <ele>1025</ele>
        <time>2022-02-02T12:42:50Z</time>
      </trkpt>
      <trkpt lat="45.28675" lon="4.4416">
        <ele>1029</ele>
        <time>2022-02-02T12:44:11Z</time>
      </trkpt>
      <trkpt lat="45.28616" lon="4.44196">
        <ele>1035</ele>
        <time>2022-02-02T12:45:37Z</time>
      </trkpt>
      <trkpt lat="45.2857" lon="4.44218">
        <ele>1040</ele>
        <time>2022-02-02T12:46:42Z</time>
      </trkpt>
      <trkpt lat="45.28498" lon="4.4431">
        <ele>1054</ele>
        <time>2022-02-02T12:48:51Z</time>
      </trkpt>
      <trkpt lat="45.2845" lon="4.44353">
        <ele>1061</ele>
        <time>2022-02-02T12:50:07Z</time>
      </trkpt>
      <trkpt lat="45.28427" lon="4.44365">
        <ele>1063</ele>
        <time>2022-02-02T12:50:39Z</time>
      </trkpt>
      <trkpt lat="45.28411" lon="4.44402">
        <ele>1066</ele>
        <time>2022-02-02T12:51:20Z</time>
      </trkpt>
      <trkpt lat="45.2841" lon="4.4442">
        <ele>1067</ele>
        <time>2022-02-02T12:51:37Z</time>
      </trkpt>
      <trkpt lat="45.28377" lon="4.44437">
        <ele>1067</ele>
        <time>2022-02-02T12:52:24Z</time>
      </trkpt>
      <trkpt lat="45.28374" lon="4.44444">
        <ele>1067</ele>
        <time>2022-02-02T12:52:32Z</time>
      </trkpt>
      <trkpt lat="45.28372" lon="4.44484">
        <ele>1067</ele>
        <time>2022-02-02T12:53:09Z</time>
      </trkpt>
      <trkpt lat="45.28367" lon="4.44667">
        <ele>1065</ele>
        <time>2022-02-02T12:56:01Z</time>
      </trkpt>
      <trkpt lat="45.28362" lon="4.44705">
        <ele>1066</ele>
        <time>2022-02-02T12:56:38Z</time>
      </trkpt>
      <trkpt lat="45.28353" lon="4.44727">
        <ele>1067</ele>
        <time>2022-02-02T12:57:02Z</time>
      </trkpt>
      <trkpt lat="45.28348" lon="4.44734">
        <ele>1067</ele>
        <time>2022-02-02T12:57:11Z</time>
      </trkpt>
      <trkpt lat="45.28327" lon="4.44751">
        <ele>1066</ele>
        <time>2022-02-02T12:57:43Z</time>
      </trkpt>
      <trkpt lat="45.28246" lon="4.44793">
        <ele>1067</ele>
        <time>2022-02-02T12:59:38Z</time>
      </trkpt>
      <trkpt lat="45.28218" lon="4.44812">
        <ele>1069</ele>
        <time>2022-02-02T13:00:20Z</time>
      </trkpt>
      <trkpt lat="45.282" lon="4.44817">
        <ele>1070</ele>
        <time>2022-02-02T13:00:44Z</time>
      </trkpt>
      <trkpt lat="45.28157" lon="4.44818">
        <ele>1069</ele>
        <time>2022-02-02T13:01:41Z</time>
      </trkpt>
      <trkpt lat="45.28135" lon="4.44823">
        <ele>1070</ele>
        <time>2022-02-02T13:02:11Z</time>
      </trkpt>
      <trkpt lat="45.27932" lon="4.44895">
        <ele>1082</ele>
        <time>2022-02-02T13:06:50Z</time>
      </trkpt>
      <trkpt lat="45.27895" lon="4.44913">
        <ele>1083</ele>
        <time>2022-02-02T13:07:43Z</time>
      </trkpt>
      <trkpt lat="45.27858" lon="4.44939">
        <ele>1087</ele>
        <time>2022-02-02T13:08:38Z</time>
      </trkpt>
      <trkpt lat="45.27826" lon="4.44965">
        <ele>1090</ele>
        <time>2022-02-02T13:09:27Z</time>
      </trkpt>
      <trkpt lat="45.27888" lon="4.44963">
        <ele>1092</ele>
        <time>2022-02-02T13:10:50Z</time>
      </trkpt>
      <trkpt lat="45.27907" lon="4.44972">
        <ele>1094</ele>
        <time>2022-02-02T13:11:16Z</time>
      </trkpt>
      <trkpt lat="45.2801" lon="4.45006">
        <ele>1102</ele>
        <time>2022-02-02T13:13:37Z</time>
      </trkpt>
      <trkpt lat="45.28024" lon="4.45025">
        <ele>1105</ele>
        <time>2022-02-02T13:14:03Z</time>
      </trkpt>
      <trkpt lat="45.28031" lon="4.45039">
        <ele>1107</ele>
        <time>2022-02-02T13:14:19Z</time>
      </trkpt>
      <trkpt lat="45.28032" lon="4.45048">
        <ele>1109</ele>
        <time>2022-02-02T13:14:28Z</time>
      </trkpt>
      <trkpt lat="45.2803" lon="4.45053">
        <ele>1110</ele>
        <time>2022-02-02T13:14:33Z</time>
      </trkpt>
      <trkpt lat="45.27988" lon="4.45075">
        <ele>1116</ele>
        <time>2022-02-02T13:15:33Z</time>
      </trkpt>
      <trkpt lat="45.27967" lon="4.4508">
        <ele>1119</ele>
        <time>2022-02-02T13:16:02Z</time>
      </trkpt>
      <trkpt lat="45.27965" lon="4.45083">
        <ele>1120</ele>
        <time>2022-02-02T13:16:05Z</time>
      </trkpt>
      <trkpt lat="45.27965" lon="4.45088">
        <ele>1122</ele>
        <time>2022-02-02T13:16:10Z</time>
      </trkpt>
      <trkpt lat="45.27967" lon="4.45091">
        <ele>1123</ele>
        <time>2022-02-02T13:16:14Z</time>
      </trkpt>
      <trkpt lat="45.27992" lon="4.45106">
        <ele>1125</ele>
        <time>2022-02-02T13:16:50Z</time>
      </trkpt>
      <trkpt lat="45.28011" lon="4.45124">
        <ele>1128</ele>
        <time>2022-02-02T13:17:21Z</time>
      </trkpt>
      <trkpt lat="45.28034" lon="4.45149">
        <ele>1132</ele>
        <time>2022-02-02T13:17:59Z</time>
      </trkpt>
      <trkpt lat="45.2804" lon="4.45161">
        <ele>1134</ele>
        <time>2022-02-02T13:18:13Z</time>
      </trkpt>
      <trkpt lat="45.28049" lon="4.45192">
        <ele>1138</ele>
        <time>2022-02-02T13:18:45Z</time>
      </trkpt>
      <trkpt lat="45.28064" lon="4.45228">
        <ele>1141</ele>
        <time>2022-02-02T13:19:24Z</time>
      </trkpt>
      <trkpt lat="45.28111" lon="4.45409">
        <ele>1147</ele>
        <time>2022-02-02T13:22:25Z</time>
      </trkpt>
      <trkpt lat="45.28126" lon="4.45471">
        <ele>1146</ele>
        <time>2022-02-02T13:23:27Z</time>
      </trkpt>
      <trkpt lat="45.28128" lon="4.4552">
        <ele>1149</ele>
        <time>2022-02-02T13:24:13Z</time>
      </trkpt>
      <trkpt lat="45.28115" lon="4.45553">
        <ele>1153</ele>
        <time>2022-02-02T13:24:48Z</time>
      </trkpt>
      <trkpt lat="45.28114" lon="4.4557">
        <ele>1154</ele>
        <time>2022-02-02T13:25:04Z</time>
      </trkpt>
      <trkpt lat="45.28116" lon="4.45587">
        <ele>1154</ele>
        <time>2022-02-02T13:25:20Z</time>
      </trkpt>
      <trkpt lat="45.28125" lon="4.4561">
        <ele>1154</ele>
        <time>2022-02-02T13:25:45Z</time>
      </trkpt>
      <trkpt lat="45.28182" lon="4.45635">
        <ele>1152</ele>
        <time>2022-02-02T13:27:05Z</time>
      </trkpt>
      <trkpt lat="45.28209" lon="4.4563">
        <ele>1153</ele>
        <time>2022-02-02T13:27:41Z</time>
      </trkpt>
      <trkpt lat="45.28216" lon="4.45636">
        <ele>1154</ele>
        <time>2022-02-02T13:27:52Z</time>
      </trkpt>
      <trkpt lat="45.28231" lon="4.4563">
        <ele>1154</ele>
        <time>2022-02-02T13:28:13Z</time>
      </trkpt>
      <trkpt lat="45.2827" lon="4.45601">
        <ele>1158</ele>
        <time>2022-02-02T13:29:12Z</time>
      </trkpt>
      <trkpt lat="45.28275" lon="4.45606">
        <ele>1160</ele>
        <time>2022-02-02T13:29:20Z</time>
      </trkpt>
      <trkpt lat="45.28279" lon="4.45621">
        <ele>1161</ele>
        <time>2022-02-02T13:29:35Z</time>
      </trkpt>
      <trkpt lat="45.28279" lon="4.45666">
        <ele>1164</ele>
        <time>2022-02-02T13:30:17Z</time>
      </trkpt>
      <trkpt lat="45.28283" lon="4.45694">
        <ele>1167</ele>
        <time>2022-02-02T13:30:44Z</time>
      </trkpt>
      <trkpt lat="45.28284" lon="4.45718">
        <ele>1170</ele>
        <time>2022-02-02T13:31:06Z</time>
      </trkpt>
      <trkpt lat="45.28274" lon="4.45771">
        <ele>1174</ele>
        <time>2022-02-02T13:31:58Z</time>
      </trkpt>
      <trkpt lat="45.28268" lon="4.45779">
        <ele>1175</ele>
        <time>2022-02-02T13:32:09Z</time>
      </trkpt>
      <trkpt lat="45.28257" lon="4.45783">
        <ele>1174</ele>
        <time>2022-02-02T13:32:24Z</time>
      </trkpt>
      <trkpt lat="45.28232" lon="4.45778">
        <ele>1173</ele>
        <time>2022-02-02T13:32:58Z</time>
      </trkpt>
      <trkpt lat="45.28202" lon="4.45798">
        <ele>1174</ele>
        <time>2022-02-02T13:33:42Z</time>
      </trkpt>
      <trkpt lat="45.28202" lon="4.45792">
        <ele>1174</ele>
        <time>2022-02-02T13:33:48Z</time>
      </trkpt>
      <trkpt lat="45.282" lon="4.45827">
        <ele>1178</ele>
        <time>2022-02-02T13:34:21Z</time>
      </trkpt>
      <trkpt lat="45.2822" lon="4.45848">
        <ele>1181</ele>
        <time>2022-02-02T13:34:54Z</time>
      </trkpt>
      <trkpt lat="45.28212" lon="4.45892">
        <ele>1187</ele>
        <time>2022-02-02T13:35:36Z</time>
      </trkpt>
      <trkpt lat="45.28226" lon="4.45982">
        <ele>1200</ele>
        <time>2022-02-02T13:37:03Z</time>
      </trkpt>
      <trkpt lat="45.28222" lon="4.46021">
        <ele>1205</ele>
        <time>2022-02-02T13:37:40Z</time>
      </trkpt>
      <trkpt lat="45.28215" lon="4.46049">
        <ele>1209</ele>
        <time>2022-02-02T13:38:08Z</time>
      </trkpt>
      <trkpt lat="45.28212" lon="4.46074">
        <ele>1212</ele>
        <time>2022-02-02T13:38:32Z</time>
      </trkpt>
      <trkpt lat="45.28211" lon="4.46111">
        <ele>1216</ele>
        <time>2022-02-02T13:39:06Z</time>
      </trkpt>
      <trkpt lat="45.28203" lon="4.46131">
        <ele>1218</ele>
        <time>2022-02-02T13:39:28Z</time>
      </trkpt>
      <trkpt lat="45.28201" lon="4.46145">
        <ele>1220</ele>
        <time>2022-02-02T13:39:41Z</time>
      </trkpt>
      <trkpt lat="45.28201" lon="4.46161">
        <ele>1221</ele>
        <time>2022-02-02T13:39:56Z</time>
      </trkpt>
      <trkpt lat="45.28191" lon="4.46166">
        <ele>1222</ele>
        <time>2022-02-02T13:40:11Z</time>
      </trkpt>
      <trkpt lat="45.28182" lon="4.4618">
        <ele>1224</ele>
        <time>2022-02-02T13:40:28Z</time>
      </trkpt>
      <trkpt lat="45.28178" lon="4.46189">
        <ele>1224</ele>
        <time>2022-02-02T13:40:38Z</time>
      </trkpt>
      <trkpt lat="45.28172" lon="4.46184">
        <ele>1224</ele>
        <time>2022-02-02T13:40:48Z</time>
      </trkpt>
      <trkpt lat="45.28198" lon="4.46206">
        <ele>1225</ele>
        <time>2022-02-02T13:41:28Z</time>
      </trkpt>
      <trkpt lat="45.28226" lon="4.46257">
        <ele>1229</ele>
        <time>2022-02-02T13:42:29Z</time>
      </trkpt>
      <trkpt lat="45.28262" lon="4.46316">
        <ele>1233</ele>
        <time>2022-02-02T13:43:42Z</time>
      </trkpt>
      <trkpt lat="45.28278" lon="4.46377">
        <ele>1237</ele>
        <time>2022-02-02T13:44:43Z</time>
      </trkpt>
      <trkpt lat="45.28284" lon="4.46432">
        <ele>1240</ele>
        <time>2022-02-02T13:45:36Z</time>
      </trkpt>
      <trkpt lat="45.2828" lon="4.46463">
        <ele>1241</ele>
        <time>2022-02-02T13:46:05Z</time>
      </trkpt>
      <trkpt lat="45.28283" lon="4.46475">
        <ele>1241</ele>
        <time>2022-02-02T13:46:17Z</time>
      </trkpt>
      <trkpt lat="45.2829" lon="4.46481">
        <ele>1241</ele>
        <time>2022-02-02T13:46:28Z</time>
      </trkpt>
      <trkpt lat="45.28314" lon="4.46486">
        <ele>1242</ele>
        <time>2022-02-02T13:47:00Z</time>
      </trkpt>
      <trkpt lat="45.28371" lon="4.46478">
        <ele>1245</ele>
        <time>2022-02-02T13:48:17Z</time>
      </trkpt>
      <trkpt lat="45.28457" lon="4.46479">
        <ele>1249</ele>
        <time>2022-02-02T13:50:12Z</time>
      </trkpt>
      <trkpt lat="45.285" lon="4.46487">
        <ele>1251</ele>
        <time>2022-02-02T13:51:09Z</time>
      </trkpt>
      <trkpt lat="45.2851" lon="4.46495">
        <ele>1251</ele>
        <time>2022-02-02T13:51:25Z</time>
      </trkpt>
      <trkpt lat="45.28515" lon="4.46509">
        <ele>1252</ele>
        <time>2022-02-02T13:51:40Z</time>
      </trkpt>
      <trkpt lat="45.28527" lon="4.46551">
        <ele>1254</ele>
        <time>2022-02-02T13:52:22Z</time>
      </trkpt>
      <trkpt lat="45.28529" lon="4.46572">
        <ele>1256</ele>
        <time>2022-02-02T13:52:42Z</time>
      </trkpt>
      <trkpt lat="45.28506" lon="4.46916">
        <ele>1267</ele>
        <time>2022-02-02T13:58:06Z</time>
      </trkpt>
      <trkpt lat="45.28507" lon="4.46927">
        <ele>1266</ele>
        <time>2022-02-02T13:58:17Z</time>
      </trkpt>
      <trkpt lat="45.28515" lon="4.46953">
        <ele>1266</ele>
        <time>2022-02-02T13:58:43Z</time>
      </trkpt>
      <trkpt lat="45.28562" lon="4.4709">
        <ele>1268</ele>
        <time>2022-02-02T14:01:07Z</time>
      </trkpt>
      <trkpt lat="45.28596" lon="4.47173">
        <ele>1270</ele>
        <time>2022-02-02T14:02:37Z</time>
      </trkpt>
      <trkpt lat="45.28637" lon="4.47253">
        <ele>1268</ele>
        <time>2022-02-02T14:04:10Z</time>
      </trkpt>
      <trkpt lat="45.28713" lon="4.47329">
        <ele>1265</ele>
        <time>2022-02-02T14:06:14Z</time>
      </trkpt>
      <trkpt lat="45.28741" lon="4.47347">
        <ele>1264</ele>
        <time>2022-02-02T14:06:55Z</time>
      </trkpt>
      <trkpt lat="45.28798" lon="4.47371">
        <ele>1262</ele>
        <time>2022-02-02T14:08:14Z</time>
      </trkpt>
      <trkpt lat="45.2881" lon="4.47373">
        <ele>1262</ele>
        <time>2022-02-02T14:08:30Z</time>
      </trkpt>
      <trkpt lat="45.28825" lon="4.47379">
        <ele>1261</ele>
        <time>2022-02-02T14:08:51Z</time>
      </trkpt>
      <trkpt lat="45.28831" lon="4.47385">
        <ele>1260</ele>
        <time>2022-02-02T14:09:01Z</time>
      </trkpt>
      <trkpt lat="45.28852" lon="4.47411">
        <ele>1258</ele>
        <time>2022-02-02T14:09:38Z</time>
      </trkpt>
      <trkpt lat="45.28867" lon="4.47436">
        <ele>1257</ele>
        <time>2022-02-02T14:10:09Z</time>
      </trkpt>
      <trkpt lat="45.28923" lon="4.47565">
        <ele>1255</ele>
        <time>2022-02-02T14:12:31Z</time>
      </trkpt>
      <trkpt lat="45.2894" lon="4.47594">
        <ele>1254</ele>
        <time>2022-02-02T14:13:06Z</time>
      </trkpt>
      <trkpt lat="45.28945" lon="4.47609">
        <ele>1254</ele>
        <time>2022-02-02T14:13:22Z</time>
      </trkpt>
      <trkpt lat="45.28949" lon="4.47643">
        <ele>1253</ele>
        <time>2022-02-02T14:13:54Z</time>
      </trkpt>
      <trkpt lat="45.28952" lon="4.47653">
        <ele>1253</ele>
        <time>2022-02-02T14:14:05Z</time>
      </trkpt>
      <trkpt lat="45.28965" lon="4.47666">
        <ele>1253</ele>
        <time>2022-02-02T14:14:26Z</time>
      </trkpt>
      <trkpt lat="45.28976" lon="4.47672">
        <ele>1252</ele>
        <time>2022-02-02T14:14:42Z</time>
      </trkpt>
      <trkpt lat="45.29004" lon="4.47695">
        <ele>1251</ele>
        <time>2022-02-02T14:15:25Z</time>
      </trkpt>
      <trkpt lat="45.29013" lon="4.47706">
        <ele>1251</ele>
        <time>2022-02-02T14:15:41Z</time>
      </trkpt>
      <trkpt lat="45.29035" lon="4.47742">
        <ele>1248</ele>
        <time>2022-02-02T14:16:25Z</time>
      </trkpt>
      <trkpt lat="45.29082" lon="4.47806">
        <ele>1247</ele>
        <time>2022-02-02T14:17:52Z</time>
      </trkpt>
      <trkpt lat="45.29096" lon="4.4782">
        <ele>1247</ele>
        <time>2022-02-02T14:18:15Z</time>
      </trkpt>
      <trkpt lat="45.29101" lon="4.47822">
        <ele>1247</ele>
        <time>2022-02-02T14:18:22Z</time>
      </trkpt>
      <trkpt lat="45.29108" lon="4.47821">
        <ele>1247</ele>
        <time>2022-02-02T14:18:31Z</time>
      </trkpt>
      <trkpt lat="45.29113" lon="4.47812">
        <ele>1248</ele>
        <time>2022-02-02T14:18:42Z</time>
      </trkpt>
      <trkpt lat="45.29123" lon="4.47783">
        <ele>1249</ele>
        <time>2022-02-02T14:19:12Z</time>
      </trkpt>
      <trkpt lat="45.29168" lon="4.47721">
        <ele>1250</ele>
        <time>2022-02-02T14:20:36Z</time>
      </trkpt>
      <trkpt lat="45.29206" lon="4.47674">
        <ele>1249</ele>
        <time>2022-02-02T14:21:43Z</time>
      </trkpt>
      <trkpt lat="45.29231" lon="4.47646">
        <ele>1249</ele>
        <time>2022-02-02T14:22:26Z</time>
      </trkpt>
      <trkpt lat="45.29254" lon="4.47626">
        <ele>1249</ele>
        <time>2022-02-02T14:23:02Z</time>
      </trkpt>
      <trkpt lat="45.29267" lon="4.47611">
        <ele>1249</ele>
        <time>2022-02-02T14:23:24Z</time>
      </trkpt>
      <trkpt lat="45.29351" lon="4.47488">
        <ele>1257</ele>
        <time>2022-02-02T14:26:05Z</time>
      </trkpt>
      <trkpt lat="45.29436" lon="4.47337">
        <ele>1260</ele>
        <time>2022-02-02T14:29:07Z</time>
      </trkpt>
      <trkpt lat="45.29474" lon="4.47331">
        <ele>1256</ele>
        <time>2022-02-02T14:29:58Z</time>
      </trkpt>
      <trkpt lat="45.29585" lon="4.47389">
        <ele>1244</ele>
        <time>2022-02-02T14:32:35Z</time>
      </trkpt>
      <trkpt lat="45.29635" lon="4.47408">
        <ele>1239</ele>
        <time>2022-02-02T14:33:44Z</time>
      </trkpt>
      <trkpt lat="45.29732" lon="4.47375">
        <ele>1232</ele>
        <time>2022-02-02T14:35:58Z</time>
      </trkpt>
      <trkpt lat="45.29732" lon="4.474">
        <ele>1231</ele>
        <time>2022-02-02T14:36:21Z</time>
      </trkpt>
      <trkpt lat="45.29696" lon="4.47492">
        <ele>1229</ele>
        <time>2022-02-02T14:38:00Z</time>
      </trkpt>
      <trkpt lat="45.29695" lon="4.47548">
        <ele>1224</ele>
        <time>2022-02-02T14:38:52Z</time>
      </trkpt>
      <trkpt lat="45.29658" lon="4.47659">
        <ele>1220</ele>
        <time>2022-02-02T14:40:48Z</time>
      </trkpt>
      <trkpt lat="45.29642" lon="4.47731">
        <ele>1217</ele>
        <time>2022-02-02T14:41:59Z</time>
      </trkpt>
      <trkpt lat="45.2965" lon="4.47843">
        <ele>1206</ele>
        <time>2022-02-02T14:43:44Z</time>
      </trkpt>
      <trkpt lat="45.29692" lon="4.47918">
        <ele>1199</ele>
        <time>2022-02-02T14:45:14Z</time>
      </trkpt>
      <trkpt lat="45.29738" lon="4.47982">
        <ele>1196</ele>
        <time>2022-02-02T14:46:40Z</time>
      </trkpt>
      <trkpt lat="45.2977" lon="4.48036">
        <ele>1193</ele>
        <time>2022-02-02T14:47:46Z</time>
      </trkpt>
      <trkpt lat="45.29793" lon="4.48058">
        <ele>1190</ele>
        <time>2022-02-02T14:48:23Z</time>
      </trkpt>
      <trkpt lat="45.29821" lon="4.48083">
        <ele>1187</ele>
        <time>2022-02-02T14:49:08Z</time>
      </trkpt>
      <trkpt lat="45.29852" lon="4.48065">
        <ele>1186</ele>
        <time>2022-02-02T14:49:52Z</time>
      </trkpt>
      <trkpt lat="45.29856" lon="4.48106">
        <ele>1186</ele>
        <time>2022-02-02T14:50:31Z</time>
      </trkpt>
      <trkpt lat="45.2985" lon="4.48126">
        <ele>1186</ele>
        <time>2022-02-02T14:50:52Z</time>
      </trkpt>
      <trkpt lat="45.29849" lon="4.48167">
        <ele>1187</ele>
        <time>2022-02-02T14:51:30Z</time>
      </trkpt>
      <trkpt lat="45.29886" lon="4.48251">
        <ele>1190</ele>
        <time>2022-02-02T14:53:03Z</time>
      </trkpt>
      <trkpt lat="45.29939" lon="4.48334">
        <ele>1186</ele>
        <time>2022-02-02T14:54:48Z</time>
      </trkpt>
      <trkpt lat="45.30088" lon="4.4845">
        <ele>1180</ele>
        <time>2022-02-02T14:58:35Z</time>
      </trkpt>
      <trkpt lat="45.30142" lon="4.48523">
        <ele>1179</ele>
        <time>2022-02-02T15:00:14Z</time>
      </trkpt>
      <trkpt lat="45.30212" lon="4.4859">
        <ele>1177</ele>
        <time>2022-02-02T15:02:07Z</time>
      </trkpt>
      <trkpt lat="45.30215" lon="4.48591">
        <ele>1177</ele>
        <time>2022-02-02T15:02:11Z</time>
      </trkpt>
      <trkpt lat="45.30198" lon="4.48633">
        <ele>1176</ele>
        <time>2022-02-02T15:02:57Z</time>
      </trkpt>
      <trkpt lat="45.30158" lon="4.48684">
        <ele>1175</ele>
        <time>2022-02-02T15:04:08Z</time>
      </trkpt>
      <trkpt lat="45.30111" lon="4.48719">
        <ele>1174</ele>
        <time>2022-02-02T15:05:19Z</time>
      </trkpt>
      <trkpt lat="45.30044" lon="4.48749">
        <ele>1172</ele>
        <time>2022-02-02T15:06:53Z</time>
      </trkpt>
      <trkpt lat="45.29974" lon="4.48828">
        <ele>1169</ele>
        <time>2022-02-02T15:08:52Z</time>
      </trkpt>
      <trkpt lat="45.29992" lon="4.4882">
        <ele>1170</ele>
        <time>2022-02-02T15:09:17Z</time>
      </trkpt>
      <trkpt lat="45.30002" lon="4.48824">
        <ele>1171</ele>
        <time>2022-02-02T15:09:31Z</time>
      </trkpt>
      <trkpt lat="45.30016" lon="4.48835">
        <ele>1172</ele>
        <time>2022-02-02T15:09:53Z</time>
      </trkpt>
      <trkpt lat="45.30033" lon="4.48844">
        <ele>1174</ele>
        <time>2022-02-02T15:10:17Z</time>
      </trkpt>
      <trkpt lat="45.30041" lon="4.48852">
        <ele>1174</ele>
        <time>2022-02-02T15:10:30Z</time>
      </trkpt>
      <trkpt lat="45.30058" lon="4.48883">
        <ele>1176</ele>
        <time>2022-02-02T15:11:07Z</time>
      </trkpt>
      <trkpt lat="45.30067" lon="4.48887">
        <ele>1177</ele>
        <time>2022-02-02T15:11:19Z</time>
      </trkpt>
      <trkpt lat="45.30077" lon="4.48889">
        <ele>1179</ele>
        <time>2022-02-02T15:11:33Z</time>
      </trkpt>
      <trkpt lat="45.30101" lon="4.48905">
        <ele>1181</ele>
        <time>2022-02-02T15:12:08Z</time>
      </trkpt>
      <trkpt lat="45.30121" lon="4.48926">
        <ele>1182</ele>
        <time>2022-02-02T15:12:41Z</time>
      </trkpt>
      <trkpt lat="45.30151" lon="4.48931">
        <ele>1184</ele>
        <time>2022-02-02T15:13:22Z</time>
      </trkpt>
      <trkpt lat="45.30168" lon="4.48939">
        <ele>1184</ele>
        <time>2022-02-02T15:13:45Z</time>
      </trkpt>
      <trkpt lat="45.30181" lon="4.48942">
        <ele>1184</ele>
        <time>2022-02-02T15:14:03Z</time>
      </trkpt>
      <trkpt lat="45.302" lon="4.48941">
        <ele>1183</ele>
        <time>2022-02-02T15:14:28Z</time>
      </trkpt>
      <trkpt lat="45.30181" lon="4.48942">
        <ele>1184</ele>
        <time>2022-02-02T15:14:54Z</time>
      </trkpt>
      <trkpt lat="45.30168" lon="4.48939">
        <ele>1184</ele>
        <time>2022-02-02T15:15:11Z</time>
      </trkpt>
      <trkpt lat="45.30151" lon="4.48931">
        <ele>1184</ele>
        <time>2022-02-02T15:15:35Z</time>
      </trkpt>
      <trkpt lat="45.30136" lon="4.48929">
        <ele>1183</ele>
        <time>2022-02-02T15:15:55Z</time>
      </trkpt>
      <trkpt lat="45.30127" lon="4.48948">
        <ele>1183</ele>
        <time>2022-02-02T15:16:17Z</time>
      </trkpt>
      <trkpt lat="45.30136" lon="4.48929">
        <ele>1183</ele>
        <time>2022-02-02T15:16:38Z</time>
      </trkpt>
      <trkpt lat="45.30144" lon="4.48913">
        <ele>1184</ele>
        <time>2022-02-02T15:16:57Z</time>
      </trkpt>
      <trkpt lat="45.30163" lon="4.48846">
        <ele>1183</ele>
        <time>2022-02-02T15:18:05Z</time>
      </trkpt>
      <trkpt lat="45.30194" lon="4.48784">
        <ele>1178</ele>
        <time>2022-02-02T15:19:16Z</time>
      </trkpt>
      <trkpt lat="45.30215" lon="4.48722">
        <ele>1175</ele>
        <time>2022-02-02T15:20:21Z</time>
      </trkpt>
      <trkpt lat="45.30224" lon="4.48705">
        <ele>1175</ele>
        <time>2022-02-02T15:20:41Z</time>
      </trkpt>
      <trkpt lat="45.30231" lon="4.48677">
        <ele>1175</ele>
        <time>2022-02-02T15:21:08Z</time>
      </trkpt>
      <trkpt lat="45.30256" lon="4.48609">
        <ele>1177</ele>
        <time>2022-02-02T15:22:20Z</time>
      </trkpt>
      <trkpt lat="45.30257" lon="4.48597">
        <ele>1177</ele>
        <time>2022-02-02T15:22:32Z</time>
      </trkpt>
      <trkpt lat="45.30273" lon="4.48547">
        <ele>1178</ele>
        <time>2022-02-02T15:23:23Z</time>
      </trkpt>
      <trkpt lat="45.30286" lon="4.48515">
        <ele>1178</ele>
        <time>2022-02-02T15:23:58Z</time>
      </trkpt>
      <trkpt lat="45.30326" lon="4.48398">
        <ele>1178</ele>
        <time>2022-02-02T15:26:00Z</time>
      </trkpt>
      <trkpt lat="45.30346" lon="4.48344">
        <ele>1177</ele>
        <time>2022-02-02T15:26:57Z</time>
      </trkpt>
      <trkpt lat="45.30381" lon="4.48219">
        <ele>1175</ele>
        <time>2022-02-02T15:29:04Z</time>
      </trkpt>
      <trkpt lat="45.30407" lon="4.48117">
        <ele>1173</ele>
        <time>2022-02-02T15:30:46Z</time>
      </trkpt>
      <trkpt lat="45.30424" lon="4.48045">
        <ele>1173</ele>
        <time>2022-02-02T15:31:57Z</time>
      </trkpt>
      <trkpt lat="45.30439" lon="4.47974">
        <ele>1171</ele>
        <time>2022-02-02T15:33:06Z</time>
      </trkpt>
      <trkpt lat="45.30446" lon="4.47905">
        <ele>1170</ele>
        <time>2022-02-02T15:34:12Z</time>
      </trkpt>
      <trkpt lat="45.30452" lon="4.47865">
        <ele>1169</ele>
        <time>2022-02-02T15:34:50Z</time>
      </trkpt>
      <trkpt lat="45.30452" lon="4.47855">
        <ele>1168</ele>
        <time>2022-02-02T15:35:00Z</time>
      </trkpt>
      <trkpt lat="45.30457" lon="4.4786">
        <ele>1169</ele>
        <time>2022-02-02T15:35:08Z</time>
      </trkpt>
      <trkpt lat="45.30545" lon="4.47875">
        <ele>1168</ele>
        <time>2022-02-02T15:37:06Z</time>
      </trkpt>
      <trkpt lat="45.30644" lon="4.47952">
        <ele>1167</ele>
        <time>2022-02-02T15:39:37Z</time>
      </trkpt>
      <trkpt lat="45.30688" lon="4.47967">
        <ele>1166</ele>
        <time>2022-02-02T15:40:37Z</time>
      </trkpt>
      <trkpt lat="45.30742" lon="4.47969">
        <ele>1167</ele>
        <time>2022-02-02T15:41:49Z</time>
      </trkpt>
      <trkpt lat="45.30795" lon="4.48003">
        <ele>1168</ele>
        <time>2022-02-02T15:43:07Z</time>
      </trkpt>
      <trkpt lat="45.30911" lon="4.48028">
        <ele>1177</ele>
        <time>2022-02-02T15:45:43Z</time>
      </trkpt>
      <trkpt lat="45.31077" lon="4.48102">
        <ele>1184</ele>
        <time>2022-02-02T15:49:35Z</time>
      </trkpt>
      <trkpt lat="45.31187" lon="4.48111">
        <ele>1191</ele>
        <time>2022-02-02T15:52:02Z</time>
      </trkpt>
      <trkpt lat="45.31356" lon="4.48143">
        <ele>1198</ele>
        <time>2022-02-02T15:55:50Z</time>
      </trkpt>
      <trkpt lat="45.3144" lon="4.48143">
        <ele>1205</ele>
        <time>2022-02-02T15:57:42Z</time>
      </trkpt>
      <trkpt lat="45.31479" lon="4.4808">
        <ele>1203</ele>
        <time>2022-02-02T15:59:01Z</time>
      </trkpt>
      <trkpt lat="45.31511" lon="4.47999">
        <ele>1203</ele>
        <time>2022-02-02T16:00:28Z</time>
      </trkpt>
      <trkpt lat="45.31565" lon="4.47955">
        <ele>1204</ele>
        <time>2022-02-02T16:01:51Z</time>
      </trkpt>
      <trkpt lat="45.3157" lon="4.47954">
        <ele>1204</ele>
        <time>2022-02-02T16:01:58Z</time>
      </trkpt>
      <trkpt lat="45.31565" lon="4.47955">
        <ele>1204</ele>
        <time>2022-02-02T16:02:05Z</time>
      </trkpt>
      <trkpt lat="45.31635" lon="4.48062">
        <ele>1214</ele>
        <time>2022-02-02T16:04:22Z</time>
      </trkpt>
      <trkpt lat="45.31694" lon="4.48124">
        <ele>1220</ele>
        <time>2022-02-02T16:06:00Z</time>
      </trkpt>
      <trkpt lat="45.31761" lon="4.48145">
        <ele>1223</ele>
        <time>2022-02-02T16:07:31Z</time>
      </trkpt>
      <trkpt lat="45.318" lon="4.48189">
        <ele>1226</ele>
        <time>2022-02-02T16:08:38Z</time>
      </trkpt>
      <trkpt lat="45.31839" lon="4.48248">
        <ele>1225</ele>
        <time>2022-02-02T16:09:54Z</time>
      </trkpt>
      <trkpt lat="45.31886" lon="4.48269">
        <ele>1219</ele>
        <time>2022-02-02T16:10:59Z</time>
      </trkpt>
      <trkpt lat="45.3192" lon="4.48311">
        <ele>1208</ele>
        <time>2022-02-02T16:11:59Z</time>
      </trkpt>
      <trkpt lat="45.32014" lon="4.48342">
        <ele>1186</ele>
        <time>2022-02-02T16:14:08Z</time>
      </trkpt>
      <trkpt lat="45.32076" lon="4.48335">
        <ele>1183</ele>
        <time>2022-02-02T16:15:31Z</time>
      </trkpt>
      <trkpt lat="45.32099" lon="4.48347">
        <ele>1178</ele>
        <time>2022-02-02T16:16:04Z</time>
      </trkpt>
      <trkpt lat="45.32124" lon="4.48388">
        <ele>1165</ele>
        <time>2022-02-02T16:16:55Z</time>
      </trkpt>
      <trkpt lat="45.32164" lon="4.48418">
        <ele>1154</ele>
        <time>2022-02-02T16:17:55Z</time>
      </trkpt>
      <trkpt lat="45.32214" lon="4.48441">
        <ele>1142</ele>
        <time>2022-02-02T16:19:05Z</time>
      </trkpt>
      <trkpt lat="45.32257" lon="4.4843">
        <ele>1137</ele>
        <time>2022-02-02T16:20:04Z</time>
      </trkpt>
      <trkpt lat="45.32301" lon="4.48405">
        <ele>1135</ele>
        <time>2022-02-02T16:21:07Z</time>
      </trkpt>
      <trkpt lat="45.32332" lon="4.48351">
        <ele>1142</ele>
        <time>2022-02-02T16:22:12Z</time>
      </trkpt>
      <trkpt lat="45.32469" lon="4.48214">
        <ele>1143</ele>
        <time>2022-02-02T16:25:56Z</time>
      </trkpt>
      <trkpt lat="45.326" lon="4.48144">
        <ele>1141</ele>
        <time>2022-02-02T16:29:02Z</time>
      </trkpt>
      <trkpt lat="45.3261" lon="4.48131">
        <ele>1142</ele>
        <time>2022-02-02T16:29:21Z</time>
      </trkpt>
      <trkpt lat="45.32623" lon="4.48136">
        <ele>1142</ele>
        <time>2022-02-02T16:29:38Z</time>
      </trkpt>
      <trkpt lat="45.32634" lon="4.48134">
        <ele>1142</ele>
        <time>2022-02-02T16:29:53Z</time>
      </trkpt>
      <trkpt lat="45.32656" lon="4.48136">
        <ele>1143</ele>
        <time>2022-02-02T16:30:23Z</time>
      </trkpt>
      <trkpt lat="45.32663" lon="4.48141">
        <ele>1143</ele>
        <time>2022-02-02T16:30:33Z</time>
      </trkpt>
      <trkpt lat="45.32669" lon="4.48151">
        <ele>1144</ele>
        <time>2022-02-02T16:30:45Z</time>
      </trkpt>
      <trkpt lat="45.32672" lon="4.48144">
        <ele>1145</ele>
        <time>2022-02-02T16:30:53Z</time>
      </trkpt>
    </trkseg>
  </trk>
</gpx>